Time;durP1;ratioP1;P1;durP2;ratioP2;P2;SDS_P1;SDS_P2;PMS_P1;PMS_P2;Temp;Humidity;BMP_temperature;BMP_pressure;BME280_temperature;BME280_humidity;BME280_pressure;Samples;Min_cycle;Max_cycle;Signal;HPM_P1;HPM_P2
2021/09/30 00:02:05;;;;;;;1.02;0.60;;;;;;;14.99;62.92;96586.66;5036752;28;20240;-82
2021/09/30 00:04:32;;;;;;;1.43;0.70;;;;;;;14.98;62.46;96598.03;5036628;28;20583;-83
2021/09/30 00:07:00;;;;;;;0.60;0.60;;;;;;;14.90;62.12;96592.91;5036796;28;20232;-83
2021/09/30 00:09:26;;;;;;;1.53;0.70;;;;;;;14.82;62.46;96589.41;5036238;28;20325;-82
2021/09/30 00:11:54;;;;;;;2.90;0.70;;;;;;;14.84;62.68;96586.63;5037912;28;20213;-83
2021/09/30 00:14:24;;;;;;;0.60;0.60;;;;;;;14.81;61.95;96585.22;5036964;28;20266;-83
2021/09/30 00:17:03;;;;;;;1.70;0.90;;;;;;;14.80;62.03;96591.41;5036920;28;20684;-83
2021/09/30 00:33:38;;;;;;;0.87;0.70;;;;;;;14.82;62.19;96594.59;5035594;28;20205;-82
2021/09/30 00:42:00;;;;;;;1.30;0.73;;;;;;;14.82;62.07;96599.78;5035651;28;20201;-83
2021/09/30 00:47:33;;;;;;;1.07;0.90;;;;;;;14.76;60.91;96600.50;4997457;28;20326;-82
2021/09/30 00:50:12;;;;;;;2.97;0.90;;;;;;;14.80;61.44;96606.16;5035496;28;20240;-83
2021/09/30 00:52:45;;;;;;;3.90;1.00;;;;;;;14.75;60.99;96604.09;5035496;28;20201;-82
2021/09/30 00:55:39;;;;;;;2.30;0.70;;;;;;;14.69;61.18;96607.38;5036253;28;20191;-83
2021/09/30 01:18:34;;;;;;;1.43;0.80;;;;;;;14.61;60.51;96623.03;5035239;28;20267;-82
2021/09/30 01:46:55;;;;;;;1.77;0.73;;;;;;;14.44;60.44;96630.09;5035273;28;20225;-82
2021/09/30 01:58:09;;;;;;;0.70;0.70;;;;;;;14.45;61.03;96636.91;5020020;28;20280;-83
2021/09/30 02:20:23;;;;;;;1.13;0.90;;;;;;;14.46;61.55;96663.63;5036061;28;20755;-83
2021/09/30 02:23:26;;;;;;;2.27;1.00;;;;;;;14.41;61.32;96656.41;5035747;28;20289;-83
2021/09/30 03:38:52;;;;;;;2.77;0.90;;;;;;;14.26;61.85;96704.69;4938358;28;20337;-85
2021/09/30 04:37:06;;;;;;;1.80;1.07;;;;;;;13.95;65.00;96740.97;4971751;28;20216;-86
2021/09/30 04:40:30;;;;;;;3.00;1.00;;;;;;;13.96;65.01;96746.97;4820508;29;20237;-87
2021/09/30 06:40:53;;;;;;;1.67;1.17;;;;;;;14.61;61.48;96770.78;5020956;28;20216;-88
2021/09/30 07:00:13;;;;;;;1.38;1.10;;;;;;;16.44;55.64;96765.81;4883289;29;20356;-86
2021/09/30 07:08:56;;;;;;;3.88;1.20;;;;;;;17.07;52.41;96777.25;5005957;28;20269;-86
2021/09/30 08:09:20;;;;;;;;;;;;;;;;;;;;;
2021/09/30 08:18:59;;;;;;;;;;;;;;;;;;;;;
2021/09/30 08:35:44;;;;;;;2.05;1.00;;;;;;;19.80;43.40;96792.66;4992306;28;20227;-87
2021/09/30 08:42:18;;;;;;;;;;;;;;;;;;;;;
2021/09/30 08:48:31;;;;;;;2.10;1.08;;;;;;;18.39;46.33;96795.50;4858003;29;20208;-88
2021/09/30 09:20:57;;;;;;;;;;;;;;;;;;;;;
2021/09/30 09:27:16;;;;;;;0.90;0.80;;;;;;;18.58;44.59;96782.53;4951580;29;20207;-86
2021/09/30 09:33:39;;;;;;;2.38;1.08;;;;;;;19.11;42.43;96790.44;5038252;22;20288;-85
2021/09/30 09:36:46;;;;;;;2.67;1.23;;;;;;;19.09;43.01;96789.03;5013029;28;20307;-85
2021/09/30 10:07:08;;;;;;;;;;;;;;;;;;;;;
2021/09/30 10:10:15;;;;;;;;;;;;;;;;;;;;;
2021/09/30 10:23:57;;;;;;;1.42;0.85;;;;;;;17.82;43.04;96736.72;4878673;28;20650;-85
2021/09/30 10:44:19;;;;;;;1.38;0.80;;;;;;;18.42;42.53;96729.91;4907045;29;20707;-85
2021/09/30 10:51:14;;;;;;;2.03;1.10;;;;;;;18.50;42.95;96733.13;4998981;28;20690;-84
2021/09/30 10:58:43;;;;;;;1.65;0.77;;;;;;;18.03;44.27;96720.97;4876678;29;20215;-86
2021/09/30 11:07:55;;;;;;;;;;;;;;;;;;;;;
2021/09/30 11:14:43;;;;;;;1.48;0.88;;;;;;;17.56;45.45;96719.91;4894364;29;20315;-85
2021/09/30 11:18:10;;;;;;;3.33;0.95;;;;;;;17.36;46.18;96711.19;4923974;28;20254;-86
2021/09/30 11:24:40;;;;;;;1.17;0.90;;;;;;;17.77;43.82;96703.41;5040101;22;20241;-87
2021/09/30 13:11:27;;;;;;;;;;;;;;;;;;;;;
2021/09/30 13:21:47;;;;;;;2.25;1.23;;;;;;;19.32;40.12;96555.19;4853678;29;20221;-86
2021/09/30 13:31:45;;;;;;;1.13;0.90;;;;;;;19.31;40.90;96544.97;4895939;29;20322;-85
2021/09/30 13:34:21;;;;;;;2.30;1.08;;;;;;;19.66;41.35;96545.41;4952897;28;20219;-86
2021/09/30 13:40:41;;;;;;;2.90;1.02;;;;;;;19.85;39.39;96531.44;4941428;28;20215;-86
2021/09/30 14:01:17;;;;;;;;;;;;;;;;;;;;;
2021/09/30 14:21:19;;;;;;;1.08;0.90;;;;;;;19.60;39.10;96497.44;4998036;28;20780;-86
2021/09/30 14:24:37;;;;;;;1.58;1.13;;;;;;;19.48;39.42;96493.03;5011341;28;20206;-87
2021/09/30 14:27:13;;;;;;;2.33;1.00;;;;;;;19.29;40.02;96490.31;5059308;28;20634;-86
2021/09/30 15:08:19;;;;;;;2.38;0.95;;;;;;;18.77;41.13;96472.28;4863624;29;20742;-87
2021/09/30 15:24:09;;;;;;;11.88;10.77;;;;;;;18.44;42.40;96487.97;4782312;30;20682;-86
2021/09/30 15:30:15;;;;;;;3.70;3.33;;;;;;;18.25;43.80;96487.00;4805820;29;20252;-88
2021/09/30 16:02:39;;;;;;;1.83;1.45;;;;;;;17.52;44.97;96489.50;4849515;29;20235;-87
2021/09/30 16:55:23;;;;;;;1.42;1.08;;;;;;;16.11;49.67;96497.84;4962158;28;20210;-87
2021/09/30 16:58:43;;;;;;;2.90;1.50;;;;;;;15.98;49.67;96500.31;4912562;28;20694;-86
2021/09/30 17:04:41;;;;;;;3.22;1.02;;;;;;;15.93;49.73;96507.06;5010119;28;20209;-86
2021/09/30 17:10:48;;;;;;;3.65;1.30;;;;;;;15.78;50.25;96504.53;4978636;28;20237;-85
2021/09/30 17:13:18;;;;;;;1.40;1.00;;;;;;;15.78;49.81;96505.31;5051275;28;20274;-86
2021/09/30 17:18:55;;;;;;;7.45;2.03;;;;;;;15.56;50.21;96500.34;5063979;23;20265;-88
2021/09/30 17:21:24;;;;;;;2.60;1.55;;;;;;;15.50;50.88;96501.84;5072572;28;20197;-87
2021/09/30 17:23:51;;;;;;;2.25;1.20;;;;;;;15.44;52.44;96498.19;5073299;28;20232;-87
2021/09/30 17:26:19;;;;;;;3.33;1.30;;;;;;;15.37;51.44;96486.16;5072676;28;20238;-86
2021/09/30 17:28:47;;;;;;;2.33;1.55;;;;;;;15.36;51.33;96487.13;5073796;28;20228;-86
2021/09/30 17:31:14;;;;;;;3.38;1.90;;;;;;;15.45;51.50;96486.81;5075281;28;20224;-90
2021/09/30 17:33:41;;;;;;;1.73;1.27;;;;;;;15.43;52.28;96485.38;5076147;28;20485;-87
2021/09/30 17:36:08;;;;;;;3.13;1.48;;;;;;;15.38;52.54;96487.75;5055856;28;20201;-86
2021/09/30 17:38:34;;;;;;;2.33;1.40;;;;;;;15.24;52.86;96486.78;5053331;28;20241;-88
2021/09/30 17:41:04;;;;;;;2.70;1.40;;;;;;;15.16;52.86;96494.69;5053806;28;20573;-86
2021/09/30 17:43:33;;;;;;;1.97;1.30;;;;;;;15.13;53.95;96488.06;5053958;28;20201;-87
2021/09/30 17:46:00;;;;;;;1.73;1.30;;;;;;;15.13;53.27;96489.88;5053346;28;20202;-89
2021/09/30 17:48:26;;;;;;;2.73;1.30;;;;;;;15.18;53.07;96490.13;5053728;28;20229;-87
2021/09/30 17:50:53;;;;;;;2.53;1.40;;;;;;;15.15;54.11;96487.91;5070716;28;20228;-87
2021/09/30 17:53:20;;;;;;;3.37;1.60;;;;;;;15.13;54.58;96493.25;5072801;28;20204;-87
2021/09/30 17:55:47;;;;;;;2.35;1.58;;;;;;;15.23;53.80;96499.94;5071917;28;20205;-86
2021/09/30 17:58:13;;;;;;;2.57;1.47;;;;;;;15.16;54.25;96489.50;5066765;28;20268;-89
2021/09/30 18:00:41;;;;;;;2.70;1.37;;;;;;;15.14;53.40;96499.25;5051553;28;20186;-86
2021/09/30 18:03:07;;;;;;;2.08;1.50;;;;;;;15.03;54.01;96497.91;5051509;28;20202;-88
2021/09/30 18:05:34;;;;;;;2.17;1.70;;;;;;;15.06;53.73;96501.94;5050951;28;20624;-86
2021/09/30 18:08:00;;;;;;;2.13;1.50;;;;;;;15.09;53.83;96504.19;5051567;28;20372;-87
2021/09/30 18:10:27;;;;;;;1.90;1.40;;;;;;;14.96;55.60;96512.63;5051224;28;20720;-89
2021/09/30 18:12:53;;;;;;;2.00;1.47;;;;;;;15.01;54.38;96512.84;5052373;28;20225;-88
2021/09/30 18:15:20;;;;;;;3.37;1.67;;;;;;;14.86;55.37;96509.47;5054067;28;20212;-88
2021/09/30 18:17:48;;;;;;;1.97;1.57;;;;;;;14.91;54.66;96512.34;5053896;28;20201;-89
2021/09/30 18:20:15;;;;;;;2.25;1.60;;;;;;;14.89;54.84;96514.31;5041090;28;20220;-87
2021/09/30 18:22:41;;;;;;;1.60;1.50;;;;;;;14.86;55.22;96512.06;5033645;28;20217;-88
2021/09/30 18:25:12;;;;;;;3.20;1.50;;;;;;;14.83;54.79;96515.81;5033267;28;20263;-87
2021/09/30 18:27:39;;;;;;;4.77;1.83;;;;;;;14.67;55.00;96512.63;5032538;28;20198;-87
2021/09/30 18:30:07;;;;;;;2.57;1.30;;;;;;;14.56;55.82;96513.06;5050685;28;20208;-89
2021/09/30 18:32:33;;;;;;;4.60;1.70;;;;;;;14.59;56.19;96510.94;5050606;28;20622;-88
2021/09/30 18:35:01;;;;;;;3.13;1.70;;;;;;;14.60;55.54;96511.75;5041185;28;20293;-87
2021/09/30 18:37:28;;;;;;;2.90;1.67;;;;;;;14.55;56.38;96514.84;5045379;28;20225;-87
2021/09/30 18:39:55;;;;;;;3.27;1.60;;;;;;;14.62;56.03;96513.19;5050141;28;20228;-87
2021/09/30 18:42:24;;;;;;;3.03;1.90;;;;;;;14.64;56.08;96513.78;5050818;28;20248;-88
2021/09/30 18:44:53;;;;;;;3.30;1.70;;;;;;;14.71;56.01;96508.69;5050466;28;20628;-87
2021/09/30 18:47:20;;;;;;;2.53;1.40;;;;;;;14.75;55.76;96505.56;5050921;28;20212;-89
2021/09/30 18:49:46;;;;;;;1.83;1.50;;;;;;;14.73;56.11;96504.94;5042340;28;20214;-87
2021/09/30 18:52:14;;;;;;;2.63;1.47;;;;;;;14.73;56.22;96497.16;5030225;28;20313;-88
2021/09/30 18:54:44;;;;;;;2.57;1.60;;;;;;;14.77;55.89;96508.78;5030506;28;20226;-88
2021/09/30 18:57:10;;;;;;;2.10;1.50;;;;;;;14.68;57.00;96512.44;5030509;28;20206;-88
2021/09/30 18:59:37;;;;;;;3.00;1.83;;;;;;;14.62;57.17;96510.59;5047140;28;20715;-89
2021/09/30 19:02:04;;;;;;;4.30;1.90;;;;;;;14.53;57.90;96509.06;5050270;28;20202;-87
2021/09/30 19:04:30;;;;;;;4.10;1.83;;;;;;;14.44;57.64;96513.50;5050074;28;20201;-88
2021/09/30 19:06:57;;;;;;;2.57;2.00;;;;;;;14.42;57.03;96506.91;5049558;28;20202;-87
2021/09/30 19:09:27;;;;;;;1.80;1.70;;;;;;;14.31;57.97;96508.09;5049691;28;20220;-88
2021/09/30 19:11:53;;;;;;;3.67;1.70;;;;;;;14.39;57.42;96510.63;5050580;28;20218;-87
2021/09/30 19:14:20;;;;;;;2.17;1.80;;;;;;;14.44;57.75;96508.31;5049813;28;20202;-88
2021/09/30 19:16:46;;;;;;;3.00;1.93;;;;;;;14.55;57.22;96506.28;5050122;28;20205;-88
2021/09/30 19:19:13;;;;;;;1.80;1.60;;;;;;;14.43;57.11;96500.75;5045848;28;20241;-88
2021/09/30 19:21:40;;;;;;;3.03;1.93;;;;;;;14.33;58.64;96500.97;5029801;28;20202;-87
2021/09/30 19:24:10;;;;;;;3.30;1.70;;;;;;;14.15;57.12;96495.31;5029942;28;20232;-87
2021/09/30 19:26:38;;;;;;;2.77;1.60;;;;;;;14.12;57.46;96498.25;5029799;28;20206;-87
2021/09/30 19:29:06;;;;;;;2.60;1.80;;;;;;;14.09;57.39;96501.19;5029880;28;20230;-87
2021/09/30 19:31:34;;;;;;;4.47;2.20;;;;;;;14.10;58.25;96511.38;5030221;28;20629;-87
2021/09/30 19:34:01;;;;;;;3.10;1.80;;;;;;;14.27;57.88;96501.66;5032121;28;20580;-87
2021/09/30 19:36:27;;;;;;;4.77;1.77;;;;;;;14.24;57.21;96496.03;5071072;28;20207;-87
2021/09/30 19:38:56;;;;;;;3.33;1.90;;;;;;;14.21;57.28;96504.16;5075869;28;20228;-88
2021/09/30 19:41:23;;;;;;;2.53;1.60;;;;;;;14.17;57.61;96503.72;5078027;28;20200;-88
2021/09/30 19:43:54;;;;;;;2.70;1.87;;;;;;;14.02;57.96;96501.09;5067036;28;20256;-87
2021/09/30 19:46:21;;;;;;;2.30;1.60;;;;;;;14.09;57.88;96498.59;5057730;28;20208;-87
2021/09/30 19:48:47;;;;;;;4.87;2.10;;;;;;;14.08;57.59;96496.97;5057493;28;20218;-88
2021/09/30 19:51:14;;;;;;;2.97;1.93;;;;;;;14.04;57.97;96495.75;5037212;28;20222;-87
2021/09/30 19:53:40;;;;;;;1.87;1.57;;;;;;;14.08;57.97;96502.97;5038038;28;20253;-88
2021/09/30 19:56:07;;;;;;;4.23;1.73;;;;;;;14.08;57.69;96502.16;5037129;28;20202;-87
2021/09/30 19:58:34;;;;;;;4.97;2.07;;;;;;;14.00;57.52;96497.06;5037803;28;20257;-87
2021/09/30 20:01:05;;;;;;;2.40;1.50;;;;;;;13.91;57.05;96500.69;5037668;28;20233;-88
2021/09/30 20:03:31;;;;;;;2.80;1.77;;;;;;;13.86;57.04;96498.63;5038080;28;20297;-89
2021/09/30 20:05:58;;;;;;;4.37;2.10;;;;;;;13.89;57.45;96503.44;5037292;28;20208;-88
2021/09/30 20:08:24;;;;;;;2.93;2.03;;;;;;;13.97;57.85;96505.19;5038067;28;20247;-87
2021/09/30 20:10:53;;;;;;;3.90;1.87;;;;;;;14.01;57.38;96499.47;5037870;28;20214;-88
2021/09/30 20:13:22;;;;;;;2.50;1.80;;;;;;;14.07;57.57;96506.53;5043786;28;20206;-88
2021/09/30 20:18:35;;;;;;;2.33;1.63;;;;;;;14.23;56.55;96503.00;5054291;28;20244;-88
2021/09/30 20:21:02;;;;;;;2.40;2.00;;;;;;;14.23;56.72;96503.00;5038158;28;20244;-90
2021/09/30 20:23:32;;;;;;;2.93;1.60;;;;;;;14.03;57.48;96499.31;5037220;28;20580;-88
2021/09/30 20:26:01;;;;;;;3.27;2.03;;;;;;;13.91;57.69;96493.72;5037177;28;20198;-89
2021/09/30 20:28:29;;;;;;;2.73;1.83;;;;;;;13.95;57.86;96496.78;5037069;28;20437;-88
2021/09/30 20:30:58;;;;;;;3.73;1.70;;;;;;;14.00;57.97;96491.88;5037575;28;20206;-88
2021/09/30 20:33:27;;;;;;;2.57;1.60;;;;;;;14.08;57.49;96490.00;5037100;28;20830;-87
2021/09/30 20:36:03;;;;;;;2.10;1.80;;;;;;;14.16;57.50;96487.38;5069054;28;20294;-88
2021/09/30 20:38:30;;;;;;;2.80;2.13;;;;;;;14.18;57.03;96485.41;5075634;28;20228;-89
2021/09/30 20:40:56;;;;;;;2.10;1.80;;;;;;;14.18;57.44;96482.81;5076619;28;20224;-88
2021/09/30 20:43:25;;;;;;;3.63;2.30;;;;;;;14.10;57.27;96495.81;5076120;28;20671;-87
2021/09/30 20:45:58;;;;;;;2.20;1.73;;;;;;;13.94;57.73;96490.78;5077032;28;20254;-88
2021/09/30 20:48:24;;;;;;;2.93;1.90;;;;;;;13.75;57.57;96483.50;5076148;28;20217;-89
2021/09/30 20:50:51;;;;;;;5.17;2.07;;;;;;;13.78;57.25;96481.38;5057624;28;20203;-87
2021/09/30 20:53:19;;;;;;;2.93;1.80;;;;;;;13.83;57.57;96483.47;5053898;28;20225;-88
2021/09/30 20:55:48;;;;;;;2.47;1.50;;;;;;;13.90;57.82;96484.34;5055568;28;20197;-88
2021/09/30 20:58:15;;;;;;;4.13;2.03;;;;;;;13.94;58.21;96479.63;5055363;28;20272;-87
2021/09/30 21:00:42;;;;;;;2.80;1.80;;;;;;;14.00;57.83;96486.72;5054954;28;20202;-87
2021/09/30 21:03:09;;;;;;;3.23;1.80;;;;;;;13.95;58.00;96476.06;5054693;28;20687;-87
2021/09/30 21:05:36;;;;;;;4.07;2.30;;;;;;;13.97;58.15;96479.28;5055033;28;20233;-88
2021/09/30 21:08:02;;;;;;;3.47;1.70;;;;;;;13.96;57.72;96473.31;5054244;28;20225;-88
2021/09/30 21:10:30;;;;;;;2.20;1.40;;;;;;;13.94;58.18;96475.25;5054603;28;20208;-88
2021/09/30 21:12:57;;;;;;;5.00;2.07;;;;;;;13.99;57.87;96478.13;5054400;28;20221;-87
2021/09/30 21:15:23;;;;;;;4.67;2.10;;;;;;;13.94;58.15;96472.66;5053837;28;20588;-87
2021/09/30 21:17:50;;;;;;;9.53;7.40;;;;;;;13.98;57.99;96466.16;5053125;28;20573;-88
2021/09/30 21:20:16;;;;;;;3.93;3.30;;;;;;;13.94;58.75;96475.25;5040622;28;20848;-87
2021/09/30 21:22:44;;;;;;;3.13;2.20;;;;;;;13.99;57.95;96461.78;5033053;28;20808;-89
2021/09/30 21:25:10;;;;;;;3.77;2.33;;;;;;;14.02;58.30;96471.81;5032901;28;20233;-86
2021/09/30 21:27:38;;;;;;;3.83;2.10;;;;;;;14.05;58.16;96471.44;5032413;28;20202;-90
2021/09/30 21:30:07;;;;;;;2.33;1.90;;;;;;;14.07;58.08;96467.69;5032801;28;20210;-89
2021/09/30 21:32:33;;;;;;;2.40;2.00;;;;;;;13.98;58.38;96463.56;5033384;28;20222;-88
2021/09/30 21:35:03;;;;;;;2.57;1.60;;;;;;;13.97;58.39;96463.75;5051398;28;20205;-87
2021/09/30 21:37:29;;;;;;;3.10;1.80;;;;;;;13.85;59.17;96462.56;5072755;28;20282;-90
2021/09/30 21:39:56;;;;;;;2.10;1.77;;;;;;;13.88;58.73;96463.00;5073550;28;20220;-88
2021/09/30 21:42:22;;;;;;;1.97;1.80;;;;;;;13.93;58.21;96455.53;5073425;28;20200;-87
2021/09/30 21:44:50;;;;;;;3.73;1.70;;;;;;;13.95;57.45;96457.94;5072847;28;20566;-87
2021/09/30 21:47:16;;;;;;;2.60;1.70;;;;;;;13.86;57.35;96461.56;5072978;28;20220;-86
2021/09/30 21:49:44;;;;;;;2.73;1.77;;;;;;;13.66;57.08;96459.47;5065462;28;20404;-88
2021/09/30 21:52:11;;;;;;;4.70;1.73;;;;;;;13.58;57.91;96464.72;5052933;28;20252;-88
2021/09/30 21:54:37;;;;;;;1.67;1.40;;;;;;;13.60;57.84;96461.97;5052917;28;20201;-88
2021/09/30 21:57:07;;;;;;;3.83;2.30;;;;;;;13.61;58.01;96458.41;5053570;28;20292;-87
2021/09/30 21:59:37;;;;;;;3.37;1.80;;;;;;;13.69;57.98;96460.91;5052171;28;20228;-87
2021/09/30 22:02:06;;;;;;;1.80;1.70;;;;;;;13.76;57.93;96464.41;5066852;28;20207;-87
2021/09/30 22:04:33;;;;;;;2.07;1.80;;;;;;;13.76;57.72;96451.47;5073393;28;20643;-87
2021/09/30 22:06:59;;;;;;;3.63;2.10;;;;;;;13.74;57.81;96466.38;5072788;28;20717;-86
2021/09/30 22:09:26;;;;;;;4.73;1.90;;;;;;;13.70;58.38;96463.31;5072695;28;20228;-89
2021/09/30 22:11:57;;;;;;;2.13;1.83;;;;;;;13.68;58.07;96454.13;5073199;28;20221;-88
2021/09/30 22:14:25;;;;;;;2.10;1.90;;;;;;;13.58;58.62;96453.56;5074835;28;20200;-88
2021/09/30 22:16:52;;;;;;;2.87;2.33;;;;;;;13.55;58.42;96459.88;5074977;28;20575;-87
2021/09/30 22:19:20;;;;;;;2.90;2.20;;;;;;;13.47;59.06;96454.75;5068663;28;20229;-88
2021/09/30 22:21:46;;;;;;;3.93;1.70;;;;;;;13.52;59.10;96460.22;5053350;28;20201;-89
2021/09/30 22:24:14;;;;;;;4.00;1.97;;;;;;;13.54;59.25;96454.88;5052547;28;20197;-87
2021/09/30 22:26:41;;;;;;;2.20;1.97;;;;;;;13.55;59.10;96452.13;5052968;28;20665;-87
2021/09/30 22:29:07;;;;;;;3.27;1.90;;;;;;;13.64;59.37;96458.06;5052586;28;20217;-87
2021/09/30 22:31:34;;;;;;;4.47;2.43;;;;;;;13.56;59.23;96445.16;5051937;28;20292;-87
2021/09/30 22:34:00;;;;;;;3.17;2.03;;;;;;;13.48;59.91;96449.41;5053330;28;20203;-90
2021/09/30 22:36:28;;;;;;;3.10;2.10;;;;;;;13.49;59.87;96439.88;5071695;28;20204;-88
2021/09/30 22:38:55;;;;;;;2.47;1.97;;;;;;;13.56;59.73;96443.38;5072686;28;20747;-89
2021/09/30 22:41:22;;;;;;;6.23;2.07;;;;;;;13.61;59.59;96438.50;5072727;28;20208;-86
2021/09/30 22:43:51;;;;;;;3.17;2.20;;;;;;;13.66;59.17;96435.41;5072600;28;20205;-87
2021/09/30 22:46:18;;;;;;;2.30;1.83;;;;;;;13.65;59.35;96433.78;5072740;28;20208;-86
2021/09/30 22:48:44;;;;;;;1.87;1.77;;;;;;;13.72;59.47;96435.47;5072169;28;20224;-87
2021/09/30 22:51:11;;;;;;;2.77;2.00;;;;;;;13.65;60.49;96432.00;5052824;28;20205;-87
2021/09/30 22:53:39;;;;;;;1.90;1.80;;;;;;;13.59;60.91;96426.72;5052660;28;20623;-86
2021/09/30 22:56:05;;;;;;;2.50;2.10;;;;;;;13.55;60.76;96430.63;5052370;28;20205;-88
2021/09/30 22:58:31;;;;;;;4.93;2.40;;;;;;;13.56;61.05;96430.44;5052484;28;20221;-87
2021/09/30 23:00:58;;;;;;;3.43;2.20;;;;;;;13.57;60.87;96432.06;5052485;28;20197;-88
2021/09/30 23:03:25;;;;;;;3.57;2.07;;;;;;;13.61;60.12;96420.38;5052291;28;20197;-87
2021/09/30 23:05:51;;;;;;;4.03;2.10;;;;;;;13.56;60.57;96424.47;5051423;28;20216;-88
2021/09/30 23:08:18;;;;;;;2.30;1.87;;;;;;;13.56;60.73;96427.06;5051267;28;20221;-88
2021/09/30 23:10:45;;;;;;;3.00;2.00;;;;;;;13.51;60.58;96421.59;5052283;28;20718;-87
2021/09/30 23:13:12;;;;;;;4.50;2.10;;;;;;;13.49;60.71;96422.56;5053808;28;20283;-86
2021/09/30 23:15:38;;;;;;;3.57;2.03;;;;;;;13.52;60.70;96428.38;5053320;28;20255;-86
2021/09/30 23:18:06;;;;;;;3.93;2.30;;;;;;;13.41;61.09;96419.25;5053103;28;20237;-87
2021/09/30 23:20:32;;;;;;;3.87;2.10;;;;;;;13.44;60.58;96421.50;5068260;28;20207;-86
2021/09/30 23:22:59;;;;;;;2.40;2.10;;;;;;;13.46;60.36;96425.53;5073030;28;20201;-86
2021/09/30 23:25:25;;;;;;;5.37;2.27;;;;;;;13.44;60.66;96421.50;5073406;28;20201;-88
2021/09/30 23:27:53;;;;;;;2.83;2.00;;;;;;;13.28;61.24;96424.16;5073360;28;20204;-86
2021/09/30 23:30:20;;;;;;;5.37;2.00;;;;;;;13.23;61.38;96414.38;5073571;28;20202;-87
2021/09/30 23:32:46;;;;;;;3.40;1.90;;;;;;;13.25;61.53;96411.63;5073304;28;20216;-87
2021/09/30 23:35:12;;;;;;;4.17;2.10;;;;;;;13.08;62.38;96406.50;5062792;28;20202;-87
2021/09/30 23:37:39;;;;;;;3.77;2.20;;;;;;;13.07;62.25;96407.50;5052878;28;20226;-87
2021/09/30 23:40:07;;;;;;;2.20;2.00;;;;;;;13.00;62.37;96414.31;5053619;28;20206;-86
2021/09/30 23:42:33;;;;;;;2.47;1.77;;;;;;;13.04;62.36;96418.19;5053464;28;20198;-86
2021/09/30 23:45:01;;;;;;;2.43;1.80;;;;;;;13.08;62.71;96421.22;5052506;28;20209;-89
2021/09/30 23:47:28;;;;;;;2.00;1.80;;;;;;;13.09;62.27;96420.22;5053257;28;20719;-86
2021/09/30 23:49:54;;;;;;;2.33;2.13;;;;;;;13.14;62.27;96413.56;5044144;28;20609;-88
2021/09/30 23:52:20;;;;;;;2.90;2.10;;;;;;;13.14;62.68;96405.81;5033230;28;20222;-87
2021/09/30 23:54:47;;;;;;;2.73;1.97;;;;;;;13.09;63.08;96409.88;5032854;28;20680;-87
2021/09/30 23:57:13;;;;;;;3.17;2.13;;;;;;;13.06;63.17;96418.00;5032865;28;20198;-86
2021/09/30 23:59:40;;;;;;;4.87;2.33;;;;;;;12.98;63.14;96410.28;5032562;28;20289;-87
